Time;durP1;ratioP1;P1;durP2;ratioP2;P2;SDS_P1;SDS_P2;PMS_P1;PMS_P2;Temp;Humidity;BMP_temperature;BMP_pressure;BME280_temperature;BME280_humidity;BME280_pressure;Samples;Min_cycle;Max_cycle;Signal;HPM_P1;HPM_P2
2022/10/02 00:02:02;;;;;;;;;3.33;1.67;;;;;17.56;64.32;101270.94;5076901;27;45351;-61
2022/10/02 00:04:54;;;;;;;;;5.00;4.00;;;;;17.55;64.45;101261.16;5077205;27;45393;-60
2022/10/02 00:07:27;;;;;;;;;8.00;4.00;;;;;17.55;64.90;101263.84;5075942;27;45649;-61
2022/10/02 00:09:58;;;;;;;;;3.00;3.00;;;;;17.53;65.30;101273.88;5076861;28;46249;-65
2022/10/02 00:12:28;;;;;;;;;3.33;3.00;;;;;17.51;65.57;101270.44;5092711;27;46083;-59
2022/10/02 00:15:01;;;;;;;;;2.33;2.33;;;;;17.47;66.06;101271.66;5077026;27;45342;-60
2022/10/02 00:17:34;;;;;;;;;3.67;3.00;;;;;17.40;66.82;101259.63;5077405;27;45420;-57
2022/10/02 00:19:59;;;;;;;;;3.00;3.00;;;;;17.36;66.81;101256.31;5076415;27;46965;-56
2022/10/02 00:22:43;;;;;;;;;3.33;3.33;;;;;17.43;67.12;101280.91;5076688;27;45330;-57
2022/10/02 00:25:23;;;;;;;;;2.00;2.00;;;;;17.43;67.12;101278.22;5075330;28;45459;-60
2022/10/02 00:28:18;;;;;;;;;2.67;2.00;;;;;17.45;67.35;101287.06;5077101;27;45491;-59
2022/10/02 00:31:13;;;;;;;;;1.33;1.33;;;;;17.42;67.40;101275.63;5075865;27;45405;-59
2022/10/02 00:34:20;;;;;;;;;4.00;3.00;;;;;17.42;67.94;101289.94;5076658;27;45364;-56
2022/10/02 00:36:45;;;;;;;;;2.00;2.00;;;;;17.46;68.04;101283.38;5076532;28;45346;-60
2022/10/02 00:39:14;;;;;;;;;6.00;4.00;;;;;17.44;68.30;101274.56;5077456;27;45719;-61
2022/10/02 00:42:10;;;;;;;;;4.00;3.00;;;;;17.46;68.12;101280.69;5059840;27;46148;-61
2022/10/02 00:44:39;;;;;;;;;5.67;4.33;;;;;17.47;68.12;101285.09;5056663;28;45364;-58
2022/10/02 00:47:28;;;;;;;;;5.00;3.33;;;;;17.46;68.28;101283.38;5056313;28;45464;-64
2022/10/02 00:50:09;;;;;;;;;3.00;3.00;;;;;17.48;68.48;101294.03;5055369;28;45297;-58
2022/10/02 00:52:54;;;;;;;;;3.00;2.67;;;;;17.46;68.56;101283.38;5056020;28;46073;-58
2022/10/02 00:55:35;;;;;;;;;2.67;2.67;;;;;17.46;68.53;101293.28;5056428;28;45502;-60
2022/10/02 00:58:41;;;;;;;;;4.00;2.00;;;;;17.46;68.74;101296.84;5064698;28;45322;-61
2022/10/02 01:01:19;;;;;;;;;2.67;0.00;;;;;17.45;69.11;101302.28;5074470;27;45498;-61
2022/10/02 01:03:53;;;;;;;;;2.33;2.33;;;;;17.45;69.26;101291.53;5074654;28;45358;-61
2022/10/02 01:06:23;;;;;;;;;4.67;2.67;;;;;17.43;69.27;101298.88;5092689;27;45420;-57
2022/10/02 01:08:49;;;;;;;;;5.00;3.00;;;;;17.44;69.51;101300.59;5091601;27;45273;-60
2022/10/02 01:11:14;;;;;;;;;8.00;3.00;;;;;17.42;69.89;101291.78;5076583;27;46083;-56
2022/10/02 01:13:40;;;;;;;;;2.67;2.67;;;;;17.35;70.54;101283.31;5075927;27;46161;-63
2022/10/02 01:16:11;;;;;;;;;7.00;4.00;;;;;17.37;70.76;101286.75;5075834;27;45166;-56
2022/10/02 01:18:37;;;;;;;;;4.00;2.33;;;;;17.35;71.63;101281.50;5076081;27;45345;-58
2022/10/02 01:21:21;;;;;;;;;4.00;2.33;;;;;17.33;72.82;101286.13;5076436;27;45381;-60
2022/10/02 01:23:53;;;;;;;;;3.67;3.00;;;;;17.27;73.57;101278.50;5075968;27;45456;-62
2022/10/02 01:26:19;;;;;;;;;3.33;3.00;;;;;17.22;74.68;101285.19;5074428;28;45368;-61
2022/10/02 01:28:44;;;;;;;;;3.00;3.00;;;;;17.15;75.23;101284.75;5076118;27;45629;-55
2022/10/02 01:31:14;;;;;;;;;2.00;2.00;;;;;17.05;76.26;101281.88;5074900;28;45555;-57
2022/10/02 01:33:42;;;;;;;;;2.00;2.00;;;;;17.01;77.10;101293.81;5075769;27;46112;-57
2022/10/02 01:36:09;;;;;;;;;5.33;3.00;;;;;16.91;78.17;101284.69;5075890;27;45235;-55
2022/10/02 01:38:36;;;;;;;;;2.67;2.67;;;;;16.85;79.31;101285.16;5091087;27;45435;-55
2022/10/02 01:41:01;;;;;;;;;8.00;4.00;;;;;16.78;80.37;101281.16;5068657;27;45478;-62
2022/10/02 01:43:35;;;;;;;;;2.67;2.67;;;;;16.75;80.49;101279.56;5055286;28;45461;-58
2022/10/02 01:46:17;;;;;;;;;2.67;2.67;;;;;16.75;80.75;101284.06;5054550;28;45381;-62
2022/10/02 01:49:03;;;;;;;;;5.00;3.00;;;;;16.72;80.34;101281.63;5057523;28;45227;-62
2022/10/02 01:51:57;;;;;;;;;1.67;1.67;;;;;16.74;80.87;101279.66;5059861;28;45318;-58
2022/10/02 01:54:42;;;;;;;;;5.33;3.00;;;;;16.73;80.81;101277.94;5057785;28;47604;-63
2022/10/02 01:57:35;;;;;;;;;3.00;1.67;;;;;16.73;80.73;101278.81;5059946;28;45272;-60
2022/10/02 02:00:12;;;;;;;;;5.00;4.00;;;;;16.72;81.27;101271.72;5079521;27;45176;-68
2022/10/02 02:03:13;;;;;;;;;5.67;2.00;;;;;16.73;81.22;101277.94;5076850;27;45633;-61
2022/10/02 02:05:52;;;;;;;;;3.67;3.67;;;;;16.75;81.18;101270.63;5044824;27;45249;-61
2022/10/02 02:08:39;;;;;;;;;2.67;2.67;;;;;16.77;81.05;101271.38;5078942;27;45363;-61
2022/10/02 02:11:15;;;;;;;;;2.00;2.00;;;;;16.76;81.73;101275.91;5078801;27;45415;-58
2022/10/02 02:14:02;;;;;;;;;2.00;2.00;;;;;16.75;81.59;101265.28;5078763;27;45494;-61
2022/10/02 02:16:50;;;;;;;;;2.00;2.00;;;;;16.76;82.08;101266.97;5077460;28;46655;-63
2022/10/02 02:19:28;;;;;;;;;3.00;3.00;;;;;16.77;81.49;101258.81;5078218;27;45378;-61
2022/10/02 02:22:06;;;;;;;;;3.33;2.00;;;;;16.71;82.66;101253.03;5059071;28;45539;-56
2022/10/02 02:24:40;;;;;;;;;3.00;1.00;;;;;16.74;82.23;101253.66;5060762;28;45313;-61
2022/10/02 02:27:10;;;;;;;;;1.67;1.67;;;;;16.76;82.47;101256.25;5058557;28;45376;-65
2022/10/02 02:29:39;;;;;;;;;3.00;3.00;;;;;16.77;83.04;101263.31;5058811;28;45315;-64
2022/10/02 02:32:09;;;;;;;;;3.00;1.00;;;;;16.69;83.53;101252.28;5058965;28;45479;-56
2022/10/02 02:34:40;;;;;;;;;2.00;2.00;;;;;16.72;83.45;101244.00;5059291;28;45231;-64
2022/10/02 02:37:18;;;;;;;;;3.00;1.00;;;;;16.72;84.10;101244.00;5064113;28;46625;-61
2022/10/02 02:39:58;;;;;;;;;2.00;2.00;;;;;16.71;84.60;101242.28;5078549;27;45268;-61
2022/10/02 02:42:28;;;;;;;;;3.67;2.00;;;;;16.74;85.75;101250.97;5062771;27;45222;-57
2022/10/02 02:45:11;;;;;;;;;3.33;2.00;;;;;16.73;84.82;101245.72;5058680;28;45271;-64
2022/10/02 02:47:45;;;;;;;;;2.00;2.00;;;;;16.73;84.63;101243.03;5057883;28;45464;-60
2022/10/02 02:50:19;;;;;;;;;3.00;2.00;;;;;16.74;85.38;101247.44;5057876;28;45291;-55
2022/10/02 02:52:51;;;;;;;;;1.33;1.00;;;;;16.76;85.59;101234.75;5057752;28;45320;-57
2022/10/02 02:55:29;;;;;;;;;2.33;1.00;;;;;16.72;85.42;101227.88;5057915;28;45283;-60
2022/10/02 02:58:15;;;;;;;;;2.00;0.67;;;;;16.74;85.51;101231.31;5057873;28;45811;-56
2022/10/02 03:00:41;;;;;;;;;3.00;3.00;;;;;16.77;85.80;101231.09;5056703;28;45396;-63
2022/10/02 03:03:06;;;;;;;;;2.67;2.67;;;;;16.76;85.38;101221.31;5058067;28;45365;-57
2022/10/02 03:05:35;;;;;;;;;3.33;3.33;;;;;16.77;85.48;101220.34;5057788;28;45374;-59
2022/10/02 03:08:04;;;;;;;;;3.00;3.00;;;;;16.73;85.78;101224.22;5057620;28;45418;-57
2022/10/02 03:10:48;;;;;;;;;13.00;10.33;;;;;16.78;86.07;101228.28;5057969;28;45421;-57
2022/10/02 03:13:44;;;;;;;;;5.33;4.00;;;;;16.76;86.33;101224.00;5057690;28;45231;-58
2022/10/02 03:16:27;;;;;;;;;4.67;4.00;;;;;16.75;85.95;101223.16;5057819;28;45373;-57
2022/10/02 03:19:24;;;;;;;;;3.00;3.00;;;;;16.78;86.29;101220.22;5057602;28;46162;-62
2022/10/02 03:22:12;;;;;;;;;5.67;3.00;;;;;16.81;86.54;101221.88;5057244;28;45370;-59
2022/10/02 03:24:46;;;;;;;;;4.00;4.00;;;;;16.77;86.73;101214.97;5057516;28;45341;-56
2022/10/02 03:27:19;;;;;;;;;4.00;3.00;;;;;16.78;86.74;101211.31;5057475;28;45383;-57
2022/10/02 03:30:10;;;;;;;;;4.00;4.00;;;;;16.79;86.63;101213.03;5057230;28;46164;-55
2022/10/02 03:32:39;;;;;;;;;3.33;3.33;;;;;16.82;87.00;101209.28;5057210;28;45314;-58
2022/10/02 03:35:09;;;;;;;;;2.67;1.67;;;;;16.79;87.79;101202.28;5057481;28;45405;-57
2022/10/02 03:37:35;;;;;;;;;3.33;2.00;;;;;16.81;87.85;101203.06;5057334;28;45533;-62
2022/10/02 03:40:00;;;;;;;;;3.00;3.00;;;;;16.81;87.46;101205.75;5057598;28;46118;-63
2022/10/02 03:42:31;;;;;;;;;4.00;3.00;;;;;16.78;87.88;101189.84;5060298;28;45405;-59
2022/10/02 03:44:56;;;;;;;;;2.00;2.00;;;;;16.78;87.61;101195.19;5057520;28;45432;-62
2022/10/02 03:47:22;;;;;;;;;3.00;2.00;;;;;16.87;87.69;101209.81;5057688;28;45547;-66
2022/10/02 03:49:47;;;;;;;;;1.00;1.00;;;;;16.88;87.12;101193.56;5057477;28;45301;-65
2022/10/02 03:52:15;;;;;;;;;2.00;2.00;;;;;16.94;86.85;101209.25;5055957;28;45426;-64
2022/10/02 03:54:41;;;;;;;;;1.67;1.67;;;;;16.95;86.71;101213.66;5057309;28;45468;-63
2022/10/02 03:57:14;;;;;;;;;2.00;2.00;;;;;16.96;87.20;101204.63;5057165;28;45279;-67
2022/10/02 04:00:11;;;;;;;;;1.00;1.00;;;;;16.96;86.72;101199.25;5056759;28;45467;-64
2022/10/02 04:02:54;;;;;;;;;1.00;1.00;;;;;17.00;87.32;101200.75;5052255;28;45482;-61
2022/10/02 04:05:26;;;;;;;;;1.00;1.00;;;;;16.97;86.79;101190.22;5057240;28;45450;-60
2022/10/02 04:07:58;;;;;;;;;1.00;1.00;;;;;17.05;87.33;101203.06;5072740;28;45418;-57
2022/10/02 04:10:29;;;;;;;;;1.00;1.00;;;;;17.07;86.20;101203.84;5055160;28;46922;-59
2022/10/02 04:13:09;;;;;;;;;2.00;1.00;;;;;17.10;86.92;101201.78;5077373;28;45235;-63
2022/10/02 04:16:00;;;;;;;;;3.00;1.67;;;;;17.13;86.40;101205.22;5077213;27;45329;-59
2022/10/02 04:18:39;;;;;;;;;0.67;0.67;;;;;17.13;86.49;101200.69;5075945;27;45544;-65
2022/10/02 04:21:16;;;;;;;;;2.33;1.00;;;;;17.16;86.61;101204.97;5077691;27;45454;-61
2022/10/02 04:24:16;;;;;;;;;0.33;0.33;;;;;17.15;85.91;101198.75;5077170;28;45452;-56
2022/10/02 04:26:55;;;;;;;;;1.00;1.00;;;;;17.20;85.96;101196.59;5075704;27;45405;-62
2022/10/02 04:29:24;;;;;;;;;0.00;0.00;;;;;17.18;86.61;101193.13;5092915;27;45410;-62
2022/10/02 04:31:59;;;;;;;;;0.00;0.00;;;;;17.21;86.03;101197.47;5076648;27;45815;-65
2022/10/02 04:34:27;;;;;;;;;0.00;0.00;;;;;17.20;85.87;101198.44;5077596;28;45235;-62
2022/10/02 04:37:14;;;;;;;;;0.00;0.00;;;;;17.21;86.16;101202.84;5077664;27;45336;-58
2022/10/02 04:39:52;;;;;;;;;0.33;0.00;;;;;17.22;85.58;101204.53;5092933;27;45500;-60
2022/10/02 04:42:23;;;;;;;;;0.00;0.00;;;;;17.22;85.32;101205.41;5067841;28;46393;-64
2022/10/02 04:45:13;;;;;;;;;0.00;0.00;;;;;17.24;85.46;101203.44;5056551;28;45369;-63
2022/10/02 04:48:22;;;;;;;;;0.00;0.00;;;;;17.25;85.31;101205.16;5056520;28;45334;-66
2022/10/02 04:51:23;;;;;;;;;0.00;0.00;;;;;17.25;85.59;101212.38;5056915;28;45221;-65
2022/10/02 04:53:56;;;;;;;;;0.00;0.00;;;;;17.22;85.53;101199.16;5020831;28;47494;-67
2022/10/02 04:56:54;;;;;;;;;2.00;0.00;;;;;17.23;86.10;101199.06;5056401;28;45410;-62
2022/10/02 04:59:34;;;;;;;;;0.00;0.00;;;;;17.27;85.35;101205.06;5056732;28;45260;-63
2022/10/02 05:02:02;;;;;;;;;1.67;0.00;;;;;17.28;85.47;101209.44;5057729;28;45449;-61
2022/10/02 05:04:46;;;;;;;;;0.00;0.00;;;;;17.31;84.86;101214.59;5057393;28;46762;-63
2022/10/02 05:07:22;;;;;;;;;0.00;0.00;;;;;17.34;84.94;101212.56;5058185;28;45387;-59
2022/10/02 05:10:02;;;;;;;;;0.00;0.00;;;;;17.35;84.74;101210.72;5056631;28;45381;-60
2022/10/02 05:12:56;;;;;;;;;1.33;0.00;;;;;17.31;84.92;101206.53;5072397;28;45567;-59
2022/10/02 05:15:49;;;;;;;;;0.00;0.00;;;;;17.32;84.74;101216.34;5077182;27;45898;-59
2022/10/02 05:18:20;;;;;;;;;0.00;0.00;;;;;17.32;84.91;101210.97;5077528;27;45181;-61
2022/10/02 05:21:14;;;;;;;;;0.00;0.00;;;;;17.33;84.64;101218.06;5077712;27;45311;-57
2022/10/02 05:23:54;;;;;;;;;0.00;0.00;;;;;17.30;84.42;101215.56;5079292;28;45429;-59
2022/10/02 05:26:31;;;;;;;;;0.00;0.00;;;;;17.30;85.00;101215.56;5081052;27;45281;-57
2022/10/02 05:29:02;;;;;;;;;0.00;0.00;;;;;17.31;84.93;101214.59;5080749;27;45384;-64
2022/10/02 05:31:36;;;;;;;;;0.00;0.00;;;;;17.30;85.06;101218.25;5080496;27;45376;-63
2022/10/02 05:34:21;;;;;;;;;0.33;0.00;;;;;17.29;84.70;101216.53;5081107;27;45342;-59
2022/10/02 05:37:14;;;;;;;;;0.00;0.00;;;;;17.27;84.36;101218.50;5080283;28;46263;-62
2022/10/02 05:39:49;;;;;;;;;0.00;0.00;;;;;17.18;84.50;101209.25;5079713;28;45411;-61
2022/10/02 05:42:25;;;;;;;;;0.00;0.00;;;;;17.10;84.67;101212.53;5074278;27;45316;-62
2022/10/02 05:45:00;;;;;;;;;0.00;0.00;;;;;17.10;84.55;101214.38;5080194;28;45485;-62
2022/10/02 05:47:31;;;;;;;;;0.00;0.00;;;;;17.13;84.32;101221.34;5080080;27;45316;-57
2022/10/02 05:50:13;;;;;;;;;1.00;0.00;;;;;17.16;84.14;101232.72;5079708;27;45262;-62
2022/10/02 05:53:09;;;;;;;;;0.00;0.00;;;;;17.17;84.43;101233.56;5080142;27;45357;-64
2022/10/02 05:55:38;;;;;;;;;1.00;0.00;;;;;17.14;84.43;101245.41;5079934;28;45428;-61
2022/10/02 05:58:29;;;;;;;;;0.00;0.00;;;;;17.12;83.94;101247.34;5079759;27;46516;-61
2022/10/02 06:01:08;;;;;;;;;0.00;0.00;;;;;17.05;84.13;101235.31;5079724;27;45348;-58
2022/10/02 06:03:42;;;;;;;;;0.00;0.00;;;;;17.12;84.25;101247.34;5079526;27;45208;-60
2022/10/02 06:06:17;;;;;;;;;0.00;0.00;;;;;17.14;83.94;101252.63;5079420;27;45243;-61
2022/10/02 06:08:49;;;;;;;;;0.00;0.00;;;;;17.16;83.92;101254.22;5079046;28;46084;-59
2022/10/02 06:11:22;;;;;;;;;0.00;0.00;;;;;17.20;83.53;101254.88;5077384;28;45274;-58
2022/10/02 06:13:59;;;;;;;;;0.00;0.00;;;;;17.20;83.34;101244.97;5079309;27;45416;-65
2022/10/02 06:16:34;;;;;;;;;0.00;0.00;;;;;17.12;83.50;101230.38;5080138;27;45325;-63
2022/10/02 06:19:15;;;;;;;;;0.00;0.00;;;;;17.24;83.54;101245.59;5078972;27;46282;-62
2022/10/02 06:21:55;;;;;;;;;0.00;0.00;;;;;17.17;83.59;101247.00;5077627;28;45369;-61
2022/10/02 06:24:27;;;;;;;;;0.00;0.00;;;;;17.26;83.10;101254.41;5078722;27;45230;-59
2022/10/02 06:26:59;;;;;;;;;0.00;0.00;;;;;17.22;83.09;101253.78;5078842;27;45374;-60
2022/10/02 06:29:35;;;;;;;;;0.00;0.00;;;;;17.27;82.86;101256.13;5078504;27;46241;-60
2022/10/02 06:32:10;;;;;;;;;2.00;0.00;;;;;17.27;83.17;101250.75;5093698;27;45455;-61
2022/10/02 06:34:35;;;;;;;;;0.00;0.00;;;;;17.27;83.57;101253.44;5077371;27;45479;-58
2022/10/02 06:37:29;;;;;;;;;0.00;0.00;;;;;17.30;83.29;101245.13;5078464;28;45366;-61
2022/10/02 06:40:14;;;;;;;;;0.00;0.00;;;;;17.31;82.74;101244.16;5078486;27;46190;-58
2022/10/02 06:42:51;;;;;;;;;0.00;0.00;;;;;17.37;82.69;101252.66;5075856;27;45540;-64
2022/10/02 06:45:25;;;;;;;;;0.00;0.00;;;;;17.42;82.48;101252.28;5058112;28;45665;-63
2022/10/02 06:47:56;;;;;;;;;0.00;0.00;;;;;17.45;82.61;101253.91;5058127;28;45619;-64
2022/10/02 06:50:51;;;;;;;;;0.00;0.00;;;;;17.45;82.15;101254.78;5057720;28;46156;-57
2022/10/02 06:53:32;;;;;;;;;0.00;0.00;;;;;17.47;82.07;101255.53;5057906;28;45475;-60
2022/10/02 06:56:00;;;;;;;;;0.00;0.00;;;;;17.47;81.66;101255.53;5073276;28;45839;-64
2022/10/02 06:58:50;;;;;;;;;0.00;0.00;;;;;17.49;81.95;101250.88;5058264;28;45538;-59
2022/10/02 07:01:28;;;;;;;;;0.00;0.00;;;;;17.51;82.33;101254.31;5057519;28;45473;-64
2022/10/02 07:04:07;;;;;;;;;0.00;0.00;;;;;17.43;82.04;101235.19;5073128;28;45438;-60
2022/10/02 07:07:02;;;;;;;;;0.00;0.00;;;;;17.55;81.38;101249.56;5057610;28;45360;-62
2022/10/02 07:09:36;;;;;;;;;0.00;0.00;;;;;17.57;81.70;101251.16;5057651;28;45235;-61
2022/10/02 07:12:28;;;;;;;;;0.00;0.00;;;;;17.61;81.36;101255.34;5069510;28;45373;-58
2022/10/02 07:15:35;;;;;;;;;0.00;0.00;;;;;17.61;81.11;101249.97;5077866;27;45458;-57
2022/10/02 07:18:22;;;;;;;;;0.00;0.00;;;;;17.68;81.30;101250.34;5075513;28;45371;-55
2022/10/02 07:20:59;;;;;;;;;0.00;0.00;;;;;17.74;81.21;101254.47;5076015;28;45350;-58
2022/10/02 07:24:02;;;;;;;;;0.00;0.00;;;;;17.77;80.92;101256.91;5076504;27;45422;-57
2022/10/02 07:26:46;;;;;;;;;0.00;0.00;;;;;17.82;80.91;101257.41;5077518;28;45251;-63
2022/10/02 07:29:35;;;;;;;;;0.00;0.00;;;;;17.86;80.53;101248.16;5077880;27;45307;-62
2022/10/02 07:32:20;;;;;;;;;0.00;0.00;;;;;17.87;80.21;101252.56;5077915;27;45622;-63
2022/10/02 07:35:10;;;;;;;;;0.00;0.00;;;;;17.93;79.48;101257.47;5077758;27;45357;-58
2022/10/02 07:38:03;;;;;;;;;0.00;0.00;;;;;17.95;79.14;101258.19;5076179;28;45302;-63
2022/10/02 07:40:40;;;;;;;;;0.00;0.00;;;;;17.99;78.78;101254.31;5077582;28;45454;-57
2022/10/02 07:43:27;;;;;;;;;0.00;0.00;;;;;18.01;78.35;101260.44;5071791;27;45251;-63
2022/10/02 07:46:30;;;;;;;;;0.00;0.00;;;;;18.04;78.16;101260.19;5077114;27;46247;-64
2022/10/02 07:49:02;;;;;;;;;0.00;0.00;;;;;18.12;78.01;101265.00;5015403;28;45545;-61
2022/10/02 07:51:46;;;;;;;;;0.00;0.00;;;;;18.12;77.27;101260.47;5066862;27;45394;-64
2022/10/02 07:54:20;;;;;;;;;0.00;0.00;;;;;18.22;77.48;101266.84;5078677;27;45385;-64
2022/10/02 07:56:49;;;;;;;;;0.00;0.00;;;;;18.24;76.15;101264.91;5093477;27;46707;-59
2022/10/02 07:59:17;;;;;;;;;0.00;0.00;;;;;18.24;76.50;101275.69;5077958;28;45350;-64
2022/10/02 08:01:44;;;;;;;;;1.00;1.00;;;;;18.31;76.43;101280.56;5078059;27;45219;-63
2022/10/02 08:04:24;;;;;;;;;0.00;0.00;;;;;18.33;76.03;101274.09;5076491;28;45355;-64
2022/10/02 08:06:56;;;;;;;;;1.00;0.00;;;;;18.43;75.56;101276.94;5077332;27;45637;-61
2022/10/02 08:09:34;;;;;;;;;0.00;0.00;;;;;18.43;75.13;101274.22;5077151;27;45346;-65
2022/10/02 08:12:12;;;;;;;;;0.67;0.67;;;;;18.48;74.70;101277.41;5076867;27;45442;-62
2022/10/02 08:14:44;;;;;;;;;0.25;0.25;;;;;18.54;74.60;101285.88;5076955;27;45557;-65
2022/10/02 08:17:28;;;;;;;;;2.00;0.00;;;;;18.60;74.31;101278.28;5076553;27;45374;-64
2022/10/02 08:20:06;;;;;;;;;0.00;0.00;;;;;18.63;74.07;101284.31;5092320;27;45381;-65
2022/10/02 08:22:41;;;;;;;;;0.67;0.00;;;;;18.71;74.28;101272.94;5076996;28;45310;-64
2022/10/02 08:25:24;;;;;;;;;2.00;0.00;;;;;18.72;73.85;101280.91;5075702;28;45392;-65
2022/10/02 08:28:15;;;;;;;;;0.00;0.00;;;;;18.76;73.50;101286.94;5076206;27;45673;-65
2022/10/02 08:30:40;;;;;;;;;3.25;0.00;;;;;18.76;73.07;101293.19;5075390;28;45338;-63
2022/10/02 08:33:16;;;;;;;;;2.25;0.00;;;;;18.75;73.18;101285.19;5076683;27;45444;-60
2022/10/02 08:36:08;;;;;;;;;0.00;0.00;;;;;18.83;73.20;101291.69;5077147;27;45377;-60
2022/10/02 08:38:50;;;;;;;;;0.25;0.25;;;;;18.93;73.24;101282.88;5074666;27;45448;-60
2022/10/02 08:41:50;;;;;;;;;0.75;0.75;;;;;19.12;72.66;101291.19;5075316;28;45242;-62
2022/10/02 08:44:24;;;;;;;;;2.25;0.00;;;;;19.31;71.67;101299.50;5067502;28;45373;-62
2022/10/02 08:47:01;;;;;;;;;1.00;1.00;;;;;19.40;71.04;101292.50;5056261;28;45405;-61
2022/10/02 08:49:51;;;;;;;;;1.00;1.00;;;;;19.51;70.90;101297.00;5055694;28;45446;-61
2022/10/02 08:52:27;;;;;;;;;2.50;1.00;;;;;19.60;70.48;101297.16;5056357;28;45243;-58
2022/10/02 08:55:21;;;;;;;;;1.00;1.00;;;;;19.62;70.21;101299.72;5056588;28;45359;-60
2022/10/02 08:57:58;;;;;;;;;1.33;1.33;;;;;19.64;70.28;101301.28;5075705;27;45551;-65
2022/10/02 09:00:37;;;;;;;;;1.00;1.00;;;;;19.65;70.25;101296.75;5076150;28;45985;-61
2022/10/02 09:03:27;;;;;;;;;0.25;0.00;;;;;19.65;70.73;101297.63;5074634;27;45416;-64
2022/10/02 09:06:17;;;;;;;;;1.00;1.00;;;;;19.66;70.07;101293.06;5076069;27;45264;-65
2022/10/02 09:08:57;;;;;;;;;2.33;1.00;;;;;19.64;69.82;101300.44;5076575;27;45374;-63
2022/10/02 09:11:44;;;;;;;;;0.00;0.00;;;;;19.61;70.15;101306.09;5075924;27;45411;-66
2022/10/02 09:14:33;;;;;;;;;1.67;1.00;;;;;19.61;69.96;101292.59;5075989;28;45403;-63
2022/10/02 09:17:33;;;;;;;;;1.00;1.00;;;;;19.61;70.29;101301.56;5076314;27;45401;-65
2022/10/02 09:20:20;;;;;;;;;2.50;1.00;;;;;19.57;70.42;101299.25;5076623;27;45236;-64
2022/10/02 09:23:24;;;;;;;;;4.00;1.00;;;;;19.62;70.25;101287.09;5075860;27;45504;-58
2022/10/02 09:26:14;;;;;;;;;1.00;1.00;;;;;19.66;69.86;101282.28;5075877;28;45315;-64
2022/10/02 09:29:03;;;;;;;;;1.75;1.00;;;;;19.68;69.94;101274.94;5074216;28;45459;-61
2022/10/02 09:32:06;;;;;;;;;1.00;1.00;;;;;19.79;70.02;101282.97;5076336;27;45252;-58
2022/10/02 09:34:46;;;;;;;;;2.25;1.00;;;;;19.91;69.26;101287.34;5075706;28;45293;-61
2022/10/02 09:37:33;;;;;;;;;3.00;2.00;;;;;20.10;69.10;101277.69;5074129;28;45488;-61
2022/10/02 09:40:40;;;;;;;;;0.50;0.00;;;;;20.17;68.49;101290.53;5076011;28;45278;-64
2022/10/02 09:43:20;;;;;;;;;2.00;2.00;;;;;20.16;68.89;101291.50;5075977;27;45530;-58
2022/10/02 09:46:05;;;;;;;;;1.50;1.50;;;;;20.16;68.26;101290.66;5075613;27;45558;-60
2022/10/02 09:48:58;;;;;;;;;0.00;0.00;;;;;20.14;68.49;101265.63;5074467;28;45380;-60
2022/10/02 09:51:52;;;;;;;;;0.00;0.00;;;;;20.24;68.14;101274.66;5076130;27;45272;-65
2022/10/02 09:54:45;;;;;;;;;2.00;1.00;;;;;20.31;68.09;101284.81;5075908;27;45183;-65
2022/10/02 09:57:54;;;;;;;;;0.00;0.00;;;;;20.40;68.07;101285.84;5057424;27;45430;-60
2022/10/02 10:00:38;;;;;;;;;2.00;0.00;;;;;20.53;67.67;101289.25;5013558;28;45311;-59
2022/10/02 10:03:22;;;;;;;;;0.00;0.00;;;;;20.58;67.20;101292.41;5013187;28;45352;-62
2022/10/02 10:06:05;;;;;;;;;0.00;0.00;;;;;20.49;67.21;101268.88;5043578;28;45397;-63
2022/10/02 10:08:45;;;;;;;;;0.00;0.00;;;;;20.71;67.34;101291.34;5055086;28;46464;-60
2022/10/02 10:11:29;;;;;;;;;0.25;0.00;;;;;20.81;66.41;101286.81;5063481;28;45350;-62
2022/10/02 10:14:32;;;;;;;;;1.00;1.00;;;;;20.92;66.07;101287.59;5077665;28;45305;-60
2022/10/02 10:17:31;;;;;;;;;0.00;0.00;;;;;21.02;65.17;101284.06;5078941;27;45296;-64
2022/10/02 10:20:29;;;;;;;;;1.00;1.00;;;;;21.02;65.48;101279.53;5078672;28;45423;-63
2022/10/02 10:23:19;;;;;;;;;0.00;0.00;;;;;21.02;65.00;101284.94;5078524;28;45460;-58
2022/10/02 10:26:13;;;;;;;;;0.00;0.00;;;;;20.94;65.37;101282.03;5078858;28;45428;-61
2022/10/02 10:29:07;;;;;;;;;0.50;0.00;;;;;21.00;65.59;101281.50;5078817;28;45300;-61
2022/10/02 10:32:13;;;;;;;;;2.00;0.00;;;;;21.11;64.74;101280.56;5078507;27;46419;-58
2022/10/02 10:34:46;;;;;;;;;1.50;0.00;;;;;21.25;63.79;101295.56;5078472;27;45245;-59
2022/10/02 10:40:35;;;;;;;;;0.00;0.00;;;;;21.54;63.82;101277.56;5078594;28;45253;-62
2022/10/02 10:43:31;;;;;;;;;1.50;1.00;;;;;21.62;62.87;101280.44;5077983;27;45362;-62
2022/10/02 10:46:08;;;;;;;;;0.00;0.00;;;;;21.61;62.16;101275.13;5077547;27;45512;-66
2022/10/02 10:49:08;;;;;;;;;0.00;0.00;;;;;21.68;62.56;101282.56;5078310;27;45317;-62
2022/10/02 10:51:58;;;;;;;;;1.00;1.00;;;;;21.65;61.82;101282.84;5078619;27;45415;-59
2022/10/02 10:54:57;;;;;;;;;1.00;1.00;;;;;21.58;62.88;101286.25;5078059;27;45248;-64
2022/10/02 10:57:50;;;;;;;;;0.00;0.00;;;;;21.45;62.80;101292.78;5062153;28;45358;-60
2022/10/02 11:00:28;;;;;;;;;1.00;1.00;;;;;21.38;63.01;101288.94;5058383;28;45370;-62
2022/10/02 11:03:04;;;;;;;;;1.00;1.00;;;;;21.33;62.93;101284.91;5058618;28;45445;-64
2022/10/02 11:05:50;;;;;;;;;1.00;1.00;;;;;21.34;63.24;101284.78;5057897;28;46050;-63
2022/10/02 11:08:17;;;;;;;;;1.00;1.00;;;;;21.36;62.77;101287.38;5057710;28;45348;-60
2022/10/02 11:10:45;;;;;;;;;0.50;0.50;;;;;21.36;62.14;101287.38;5058951;28;45279;-61
2022/10/02 11:13:32;;;;;;;;;1.00;1.00;;;;;21.39;62.47;101287.06;5078177;27;45691;-62
2022/10/02 11:16:25;;;;;;;;;0.75;0.75;;;;;21.46;62.38;101280.09;5077565;28;46256;-64
2022/10/02 11:18:59;;;;;;;;;1.00;1.00;;;;;21.44;62.00;101284.78;5077984;27;45338;-61
2022/10/02 11:21:50;;;;;;;;;0.00;0.00;;;;;21.40;62.48;101280.66;5077567;27;45413;-65
2022/10/02 11:24:59;;;;;;;;;1.00;1.00;;;;;21.40;62.69;101280.66;5078415;28;45232;-60
2022/10/02 11:27:49;;;;;;;;;0.00;0.00;;;;;21.33;62.15;101288.47;5077865;28;46037;-60
2022/10/02 11:30:20;;;;;;;;;0.00;0.00;;;;;21.19;62.24;101283.41;5076247;28;45441;-65
2022/10/02 11:33:21;;;;;;;;;0.00;0.00;;;;;21.04;63.08;101288.34;5093512;27;45525;-58
2022/10/02 11:36:24;;;;;;;;;1.00;1.00;;;;;21.01;63.26;101287.78;5076315;27;45256;-67
2022/10/02 11:39:13;;;;;;;;;0.25;0.25;;;;;20.97;62.62;101286.34;5077540;27;46018;-59
2022/10/02 11:42:08;;;;;;;;;3.25;1.00;;;;;20.90;63.28;101295.00;5076718;28;45298;-62
2022/10/02 11:44:46;;;;;;;;;2.00;1.00;;;;;20.84;63.41;101279.31;5077800;27;45234;-59
2022/10/02 11:47:28;;;;;;;;;2.00;0.00;;;;;20.82;63.45;101294.78;5077951;27;45688;-61
2022/10/02 11:50:22;;;;;;;;;1.00;0.00;;;;;20.83;63.97;101296.53;5077631;27;46251;-62
2022/10/02 11:53:02;;;;;;;;;0.00;0.00;;;;;20.80;65.24;101298.63;5077332;28;45382;-64
2022/10/02 11:55:48;;;;;;;;;1.00;1.00;;;;;20.66;67.77;101328.72;5077761;27;45318;-62
2022/10/02 11:58:21;;;;;;;;;0.75;0.75;;;;;20.43;69.14;101334.25;5077530;27;45251;-56
2022/10/02 12:01:06;;;;;;;;;1.00;1.00;;;;;20.20;71.47;101336.19;5076944;27;45598;-60
2022/10/02 12:03:47;;;;;;;;;1.00;1.00;;;;;20.06;72.08;101338.34;5092797;27;45373;-62
2022/10/02 12:06:50;;;;;;;;;3.00;1.00;;;;;19.99;72.42;101321.81;5092945;27;45260;-63
2022/10/02 12:09:49;;;;;;;;;1.00;1.00;;;;;20.00;73.08;101326.22;5076958;27;45651;-60
2022/10/02 12:12:42;;;;;;;;;0.00;0.00;;;;;20.07;72.38;101322.03;5076724;27;45540;-58
2022/10/02 12:15:43;;;;;;;;;1.00;1.00;;;;;20.06;72.88;101323.00;5076744;28;45329;-56
2022/10/02 12:18:36;;;;;;;;;2.25;1.00;;;;;20.06;72.43;101323.00;5076986;27;45455;-58
2022/10/02 12:26:59;;;;;;;;;2.00;1.00;;;;;20.23;73.09;101313.47;5076693;28;45265;-62
2022/10/02 12:30:02;;;;;;;;;0.00;0.00;;;;;20.16;73.20;101312.25;5075380;28;45303;-59
2022/10/02 12:32:36;;;;;;;;;1.00;0.00;;;;;20.12;72.80;101322.47;5076397;27;45246;-66
2022/10/02 12:35:16;;;;;;;;;1.00;1.00;;;;;20.06;73.51;101295.16;5072587;28;46201;-61
2022/10/02 12:38:12;;;;;;;;;4.25;3.00;;;;;20.37;73.72;101315.84;5056033;28;45457;-65
2022/10/02 12:40:57;;;;;;;;;2.00;2.00;;;;;20.46;73.42;101315.09;5056407;28;45461;-59